Carthage, Maine
Current Conditions -  °F | °C
As of 10:53 PM on Wednesday 28 Jan 2015 (Local Time) from KAUG Reporting Station
Clear Clear  
Wind Chill: 12°   Ceiling: Unl
Heat Index: 12°   Visibility: 10mi
Dew Point:   Wind: 3mph
Humidity: 59%   Direction: 300°WNW
Pressure: 30.14"   Gusts: NA
Location:  44.5803°N, 70.4003°W
Report Text: KAUG 290353Z AUTO 30003KT 10SM CLR M11/M18 A3014 RMK AO2 SLP214 T11111178
Loading
Personal Weather Stations






























Interactive Weather Map New forecast layout! Learn more

10-Day Weather Forecast

Advertisements
Track Severe Weather on mobile